Terminal Aerodrome Forecast
Issued by NWS Jackson, MS

Home | Current Version | Previous Version | Text Only | Print | Product List | Glossary On
Versions: 1 2 3 4 5 6 7 8 9 10 11 12 13 14
854
FTUS44 KJAN 121002 AAA
TAFMEI
TAF AMD
KMEI 121002Z 1210/1306 20003KT P6SM SCT250
     FM121500 30011KT P6SM FEW250=

USA.gov is the U.S. government's official web portal to all federal, state and local government web resources and services.